Flight ASX315

  • Submitted By: Krzysztof H. Blaszkow
  • Departure Airport: Gdansk im. Lecha Walesy (EPGD)
  • Arrival Airport: Szczecin (EPSC)
  • Aircraft: BE58 (SP-MVL)
  • Flight Time: 01.33.40
  • Date Submitted: 12/24/2016
  • Status: Accepted
Flight Details
Gross Revenue:
(5 load / € 55.00 per unit
€ 275.00
Fuel Cost:
(84.8218 fuel used @ 0.45 / unit)
€ 38.17

Additional Log Information:

View Log

[11:40] - Carenado BARON B58 METAL BLUE
[11:40] - Flight ASX315 is ready to depart EPGD with a final destination of EPSC.
[11:40] - Parking Brake Applied
[11:40] - Navigation Lights ON
[11:40] - Beacon Light ON
[11:40] - Recognition Lights ON
[11:40] - Wing Lights ON
[11:40] - Logo Lights ON
[11:40] - Cabin Lights ON
[11:40] - Boarding
[11:40] - ADF1 - 284.0
[11:40] - ADF2 - 240.0
[11:40] - NAV1 - 110.30
[11:40] - NAV2 - 116.10
[11:40] - COM1 - 122.80
[11:40] - COM2 - 123.45
[11:40] - Transponder - 2200
[11:46] - NAV1 - 116.10
[11:52] - Taxi Lights ON 0AGL
[11:53] - Parking Brake Released
[11:53] - Pushing Back from the gate
[11:53] - Engine 1 Started
[11:53] - Engine 2 Started
[12:02] - Taxiing to Runway
[12:03] - Landing Lights ON 0AGL
[12:04] - Taxi Lights OFF 0AGL
[12:04] - Strobe Lights ON 0AGL
[12:05] - Taking Off with 5 passengers on board
[12:05] - Take off at 98kts, with a pitch of 4deg and 274lbs of fuel on board
[12:05] - Wind Heading 234 | Wind Speed 12kts | Temperature 2 deg C
[12:05] - METAR Departure: EPGD 241130Z 24011KT 3500 -RA BR OVC004 02/01 Q1014

[12:05] - Gear up at 128AGL
[12:06] - Climbing to TOC
[12:09] - AutoPilot Engaged at 5233AGL
[12:12] - TOC reached
[12:12] - Cruise started
[12:21] - NAV1 - 114.75
[12:42] - TOD reached
[12:42] - Descending to destination
[12:45] - Landing Shortly
[13:05] - Flaps to position 1 at 1837ft and 128kts
[13:08] - AutoPilot Disengaged at 1673AGL
[13:08] - Flaps to position 0 at 1844ft and 118kts
[13:08] - Flaps to position 1 at 1844ft and 118kts
[13:08] - Gear down at 1480AGL
[13:10] - Landed at -155fpm. With 91lbs of fuel onboard and a pitch angle of 3deg.
[13:10] - Wind Heading 244 | Wind Speed 12kts | Temperature 5 deg C
[13:10] - METAR Arrival: EPSC 241230Z 22011KT 200V260 9999 BKN010 06/04 Q1016

[13:10] - Flaps to position 0
[13:10] - Taxiing to Gate
[13:11] - Strobe Lights OFF 3AGL
[13:11] - Landing Lights OFF 3AGL
[13:11] - Taxi Lights ON 3AGL
[13:14] - Parking Brake Applied
[13:14] - Arrived safely at EPSC. We hope you enjoyed your flight!
[13:14] - Engine 1 Stopped
[13:14] - Engine 2 Stopped
[13:14] - Taxi Lights OFF 3AGL
[13:14] - Carenado BARON B58 METAL BLUE
[13:14] - MaxSim Rate: 1x
[13:14] - SiouxAcars ver: 1.0.1.2

Route Map